createdAt,value
2022-09-20T00:01:32.824Z,8.30
2022-09-20T00:03:36.362Z,8.30
2022-09-20T00:05:40.077Z,8.30
2022-09-20T00:07:45.225Z,8.30
2022-09-20T00:09:46.846Z,8.30
2022-09-20T00:11:48.494Z,8.30
2022-09-20T00:13:52.959Z,8.30
2022-09-20T00:15:54.757Z,8.30
2022-09-20T00:17:57.428Z,8.30
2022-09-20T00:19:59.068Z,8.30
2022-09-20T00:22:00.717Z,8.30
2022-09-20T00:24:02.686Z,8.20
2022-09-20T00:26:04.593Z,8.20
2022-09-20T00:28:06.709Z,8.10
2022-09-20T00:30:09.062Z,8.10
2022-09-20T00:32:10.693Z,8.10
2022-09-20T00:34:31.629Z,8.10
2022-09-20T00:36:33.229Z,8.00
2022-09-20T00:38:34.852Z,8.10
2022-09-20T00:40:36.773Z,8.00
2022-09-20T00:42:38.925Z,7.90
2022-09-20T00:44:55.266Z,7.80
2022-09-20T00:46:57.252Z,7.80
2022-09-20T00:49:27.395Z,7.70
2022-09-20T00:51:33.025Z,7.60
2022-09-20T00:53:39.702Z,7.50
2022-09-20T00:55:46.192Z,7.50
2022-09-20T00:57:48.569Z,7.50
2022-09-20T00:59:52.888Z,7.60
2022-09-20T01:02:13.513Z,7.60
2022-09-20T01:04:16.750Z,7.60
2022-09-20T01:06:19.145Z,7.70
2022-09-20T01:08:24.553Z,7.80
2022-09-20T01:10:26.255Z,7.80
2022-09-20T01:12:32.093Z,7.90
2022-09-20T01:14:34.349Z,7.90
2022-09-20T01:16:36.779Z,8.00
2022-09-20T01:18:39.354Z,8.00
2022-09-20T01:20:43.570Z,8.00
2022-09-20T01:23:08.473Z,8.00
2022-09-20T01:25:34.557Z,8.00
2022-09-20T01:27:36.270Z,8.00
2022-09-20T01:29:59.765Z,8.00
2022-09-20T01:32:06.170Z,8.00
2022-09-20T01:34:13.291Z,8.00
2022-09-20T01:36:26.737Z,8.10
2022-09-20T01:38:42.333Z,8.10
2022-09-20T01:41:01.701Z,8.00
2022-09-20T01:43:24.803Z,8.00
2022-09-20T01:45:31.982Z,8.00
2022-09-20T01:47:54.630Z,8.00
2022-09-20T01:50:11.283Z,8.00
2022-09-20T01:52:37.156Z,8.00
2022-09-20T01:55:12.986Z,8.00
2022-09-20T01:57:52.162Z,7.90
2022-09-20T02:00:05.436Z,7.90
2022-09-20T02:02:08.933Z,7.90
2022-09-20T02:04:28.961Z,7.90
2022-09-20T02:06:52.429Z,7.90
2022-09-20T02:09:10.730Z,7.90
2022-09-20T02:11:41.113Z,7.90
2022-09-20T02:14:09.319Z,7.90
2022-09-20T02:16:40.456Z,7.90
2022-09-20T02:19:03.561Z,7.90
2022-09-20T02:21:34.806Z,7.90
2022-09-20T02:24:20.702Z,7.90
2022-09-20T02:26:45.142Z,7.90
2022-09-20T02:29:00.141Z,7.90
2022-09-20T02:31:15.726Z,7.90
2022-09-20T02:33:48.789Z,7.90
2022-09-20T02:36:11.957Z,7.90
2022-09-20T02:38:40.476Z,7.90
2022-09-20T02:40:42.144Z,7.90
2022-09-20T02:43:05.955Z,7.90
2022-09-20T02:45:18.493Z,7.80
2022-09-20T02:47:23.963Z,7.80
2022-09-20T02:49:41.912Z,7.80
2022-09-20T02:51:58.349Z,7.80
2022-09-20T02:54:25.415Z,7.80
2022-09-20T02:56:46.873Z,7.80
2022-09-20T02:59:00.380Z,7.90
2022-09-20T03:01:32.871Z,7.90
2022-09-20T03:03:47.105Z,7.90
2022-09-20T03:06:23.149Z,7.90
2022-09-20T03:08:42.123Z,7.90
2022-09-20T03:10:43.722Z,7.90
2022-09-20T03:13:03.829Z,7.90
2022-09-20T03:15:33.121Z,7.90
2022-09-20T03:18:10.345Z,7.90
2022-09-20T03:20:25.563Z,8.00
2022-09-20T03:22:47.375Z,7.90
2022-09-20T03:25:07.924Z,7.90
2022-09-20T03:27:32.765Z,7.90
2022-09-20T03:30:04.841Z,7.80
2022-09-20T03:32:13.641Z,7.90
2022-09-20T03:34:36.158Z,7.90
2022-09-20T03:36:37.798Z,7.90
2022-09-20T03:38:55.527Z,7.90
2022-09-20T03:41:24.605Z,7.80
2022-09-20T03:43:55.974Z,7.80
2022-09-20T03:46:00.504Z,7.80
2022-09-20T03:48:20.864Z,7.80
2022-09-20T03:50:50.515Z,7.70
2022-09-20T03:53:12.806Z,7.80
2022-09-20T03:56:19.055Z,7.70
2022-09-20T03:58:29.481Z,7.70
2022-09-20T04:01:00.282Z,7.70
2022-09-20T04:03:16.822Z,7.80
2022-09-20T04:05:43.214Z,7.80
2022-09-20T04:08:12.622Z,7.80
2022-09-20T04:10:28.137Z,7.80
2022-09-20T04:12:45.018Z,7.80
2022-09-20T04:14:54.609Z,7.80
2022-09-20T04:17:05.944Z,7.90
2022-09-20T04:19:32.857Z,7.90
2022-09-20T04:21:38.268Z,7.90
2022-09-20T04:23:55.334Z,7.90
2022-09-20T04:26:01.153Z,7.80
2022-09-20T04:28:14.083Z,7.80
2022-09-20T04:30:22.677Z,7.70
2022-09-20T04:32:42.404Z,7.70
2022-09-20T04:35:18.094Z,7.60
2022-09-20T04:37:27.490Z,7.60
2022-09-20T04:39:47.499Z,7.60
2022-09-20T04:42:15.264Z,7.50
2022-09-20T04:44:57.965Z,7.50
2022-09-20T04:47:36.677Z,7.50
2022-09-20T04:49:50.349Z,7.40
2022-09-20T04:52:07.002Z,7.40
2022-09-20T04:54:14.566Z,7.40
2022-09-20T04:56:54.144Z,7.40
2022-09-20T04:59:11.483Z,7.40
2022-09-20T05:01:24.468Z,7.40
2022-09-20T05:04:01.490Z,7.30
2022-09-20T05:06:45.077Z,7.30
2022-09-20T05:09:08.769Z,7.20
2022-09-20T05:11:30.517Z,7.10
2022-09-20T05:13:57.151Z,7.10
2022-09-20T05:16:03.532Z,7.10
2022-09-20T05:18:13.822Z,7.00
2022-09-20T05:20:34.158Z,7.00
2022-09-20T05:23:01.066Z,7.10
2022-09-20T05:25:29.642Z,7.10
2022-09-20T05:27:50.421Z,7.10
2022-09-20T05:30:15.309Z,7.20
2022-09-20T05:32:41.092Z,7.20
2022-09-20T05:35:06.783Z,7.30
2022-09-20T05:37:48.881Z,7.30
2022-09-20T05:40:04.886Z,7.40
2022-09-20T05:42:29.095Z,7.50
2022-09-20T05:44:45.704Z,7.60
2022-09-20T05:46:57.086Z,7.70
2022-09-20T05:49:24.911Z,7.80
2022-09-20T05:51:42.392Z,7.80
2022-09-20T05:53:56.050Z,7.90
2022-09-20T05:56:15.361Z,7.90
2022-09-20T05:58:53.537Z,7.90
2022-09-20T06:01:21.820Z,7.90
2022-09-20T06:03:41.281Z,8.00
2022-09-20T06:06:13.125Z,8.00
2022-09-20T06:08:26.889Z,8.10
2022-09-20T06:11:03.018Z,8.30
2022-09-20T06:13:22.518Z,8.30
2022-09-20T06:15:45.520Z,8.40
2022-09-20T06:18:16.551Z,8.50
2022-09-20T06:20:42.898Z,8.70
2022-09-20T06:22:57.382Z,8.80
2022-09-20T06:25:03.660Z,8.90
2022-09-20T06:27:13.497Z,9.00
2022-09-20T06:29:22.048Z,9.10
2022-09-20T06:31:23.870Z,9.10
2022-09-20T06:33:28.291Z,9.10
2022-09-20T06:36:19.926Z,9.10
2022-09-20T06:39:10.027Z,9.10
2022-09-20T06:41:28.534Z,9.10
2022-09-20T06:43:31.433Z,9.50
2022-09-20T06:45:33.055Z,10.10
2022-09-20T06:47:38.546Z,10.50
2022-09-20T06:49:42.282Z,10.70
2022-09-20T06:51:44.019Z,10.90
2022-09-20T06:53:45.766Z,11.00
2022-09-20T06:55:47.835Z,11.20
2022-09-20T06:57:51.512Z,11.30
2022-09-20T06:59:53.177Z,11.50
2022-09-20T07:01:55.333Z,11.60
2022-09-20T07:03:58.927Z,11.60
2022-09-20T07:06:01.332Z,11.50
2022-09-20T07:08:03.941Z,11.40
2022-09-20T07:10:06.183Z,11.40
2022-09-20T07:12:10.736Z,11.30
2022-09-20T07:14:12.496Z,10.90
2022-09-20T07:16:14.294Z,10.80
2022-09-20T07:18:16.040Z,10.90
2022-09-20T07:20:21.519Z,11.20
2022-09-20T07:22:23.574Z,11.60
2022-09-20T07:24:25.327Z,12.50
2022-09-20T07:26:29.071Z,13.50
2022-09-20T07:28:33.707Z,14.10
2022-09-20T07:30:35.316Z,14.20
2022-09-20T07:32:36.944Z,13.70
2022-09-20T07:34:38.556Z,13.70
2022-09-20T07:36:40.200Z,14.00
2022-09-20T07:38:43.001Z,13.60
2022-09-20T07:40:47.165Z,13.10
2022-09-20T07:42:51.085Z,12.80
2022-09-20T07:44:56.309Z,12.80
2022-09-20T07:47:01.038Z,12.70
2022-09-20T07:49:03.302Z,12.60
2022-09-20T07:51:09.210Z,12.60
2022-09-20T07:53:12.498Z,12.40
2022-09-20T07:55:14.261Z,12.60
2022-09-20T07:57:17.627Z,12.50
2022-09-20T07:59:19.661Z,12.90
2022-09-20T08:01:22.738Z,13.70
2022-09-20T08:03:24.951Z,14.90
2022-09-20T08:05:27.444Z,16.40
2022-09-20T08:07:29.805Z,17.50
2022-09-20T08:09:31.629Z,17.80
2022-09-20T08:11:34.365Z,18.20
2022-09-20T08:16:08.117Z,19.00
2022-09-20T08:18:11.712Z,19.20
2022-09-20T08:20:13.995Z,19.60
2022-09-20T08:22:15.653Z,20.00
2022-09-20T08:24:17.575Z,20.60
2022-09-20T08:26:22.565Z,21.10
2022-09-20T08:28:24.596Z,20.70
2022-09-20T08:30:27.749Z,20.60
2022-09-20T08:32:29.925Z,21.20
2022-09-20T08:34:31.861Z,21.50
2022-09-20T08:36:36.736Z,21.40
2022-09-20T08:41:07.731Z,21.30
2022-09-20T08:43:10.794Z,21.40
2022-09-20T08:45:33.548Z,22.00
2022-09-20T08:47:46.297Z,22.40
2022-09-20T08:49:50.146Z,22.30
2022-09-20T08:51:55.157Z,21.10
2022-09-20T08:53:58.160Z,20.00
2022-09-20T08:56:00.087Z,19.00
2022-09-20T08:58:07.560Z,18.90
2022-09-20T09:00:18.021Z,19.30
2022-09-20T09:02:24.039Z,19.80
2022-09-20T09:04:35.749Z,20.60
2022-09-20T09:06:38.595Z,21.20
2022-09-20T09:08:43.479Z,22.10
2022-09-20T09:10:51.181Z,21.50
2022-09-20T09:12:53.288Z,21.50
2022-09-20T09:14:59.558Z,21.10
2022-09-20T09:17:01.207Z,20.10
2022-09-20T09:19:33.651Z,19.20
2022-09-20T09:21:35.788Z,18.00
2022-09-20T09:23:41.540Z,16.80
2022-09-20T09:25:43.540Z,16.40
2022-09-20T09:28:07.148Z,17.00
2022-09-20T09:30:21.754Z,17.20
2022-09-20T09:32:29.044Z,16.90
2022-09-20T09:34:36.449Z,16.50
2022-09-20T09:36:49.012Z,16.10
2022-09-20T09:38:52.043Z,15.60
2022-09-20T09:40:58.042Z,15.40
2022-09-20T09:43:02.698Z,15.10
2022-09-20T09:45:27.088Z,15.00
2022-09-20T09:47:29.641Z,14.90
2022-09-20T09:49:35.929Z,15.20
2022-09-20T09:51:38.559Z,15.40
2022-09-20T09:53:41.700Z,15.40
2022-09-20T09:56:01.639Z,15.40
2022-09-20T09:58:29.711Z,15.60
2022-09-20T10:00:33.152Z,15.70
2022-09-20T10:03:05.806Z,15.60
2022-09-20T10:05:24.327Z,15.20
2022-09-20T10:07:54.261Z,15.00
2022-09-20T10:10:01.984Z,15.30
2022-09-20T10:12:37.778Z,16.40
2022-09-20T10:15:14.790Z,18.20
2022-09-20T10:17:34.936Z,19.90
2022-09-20T10:19:58.635Z,21.40
2022-09-20T10:22:24.848Z,22.50
2022-09-20T10:24:39.839Z,21.80
2022-09-20T10:26:50.707Z,19.90
2022-09-20T10:28:58.378Z,18.50
2022-09-20T10:31:08.851Z,17.70
2022-09-20T10:33:24.074Z,16.80
2022-09-20T10:35:33.805Z,16.10
2022-09-20T10:37:50.562Z,15.70
2022-09-20T10:40:09.872Z,15.40
2022-09-20T10:42:48.871Z,15.40
2022-09-20T10:45:09.238Z,15.30
2022-09-20T10:47:21.465Z,15.30
2022-09-20T10:49:50.715Z,15.20
2022-09-20T10:52:04.244Z,15.00
2022-09-20T10:54:34.985Z,14.80
2022-09-20T10:56:40.444Z,14.50
2022-09-20T10:58:54.403Z,14.60
2022-09-20T11:01:26.868Z,14.50
2022-09-20T11:03:43.292Z,14.50
2022-09-20T11:06:03.527Z,14.90
2022-09-20T11:08:14.256Z,15.20
2022-09-20T11:10:22.181Z,15.90
2022-09-20T11:12:38.230Z,16.10
2022-09-20T11:15:09.257Z,16.10
2022-09-20T11:17:15.513Z,15.90
2022-09-20T11:19:31.331Z,15.60
2022-09-20T11:21:39.762Z,15.40
2022-09-20T11:24:13.539Z,15.10
2022-09-20T11:26:23.442Z,15.20
2022-09-20T11:28:36.443Z,15.70
2022-09-20T11:30:51.414Z,16.40
2022-09-20T11:33:04.621Z,17.60
2022-09-20T11:35:14.775Z,18.80
2022-09-20T11:37:18.594Z,19.60
2022-09-20T11:39:30.314Z,20.10
2022-09-20T11:41:33.093Z,20.40
2022-09-20T11:43:36.409Z,20.50
2022-09-20T11:45:40.134Z,20.00
2022-09-20T11:47:56.249Z,19.30
2022-09-20T11:50:19.614Z,18.40
2022-09-20T11:52:30.378Z,17.50
2022-09-20T11:55:07.097Z,17.40
2022-09-20T11:57:15.939Z,18.30
2022-09-20T11:59:35.017Z,18.20
2022-09-20T12:01:39.926Z,17.30
2022-09-20T12:03:44.421Z,16.70
2022-09-20T12:05:46.977Z,16.10
2022-09-20T12:07:54.896Z,15.80
2022-09-20T12:10:08.602Z,15.40
2022-09-20T12:12:28.557Z,15.20
2022-09-20T12:14:32.349Z,15.60
2022-09-20T12:16:46.043Z,16.30
2022-09-20T12:18:53.913Z,17.40
2022-09-20T12:20:55.551Z,18.40
2022-09-20T12:23:35.168Z,18.20
2022-09-20T12:25:40.437Z,17.90
2022-09-20T12:27:42.035Z,17.70
2022-09-20T12:29:50.010Z,17.60
2022-09-20T12:31:54.651Z,17.30
2022-09-20T12:34:12.133Z,17.20
2022-09-20T12:36:17.513Z,17.20
2022-09-20T12:38:27.388Z,17.80
2022-09-20T12:40:29.115Z,18.00
2022-09-20T12:42:33.877Z,18.20
2022-09-20T12:44:39.837Z,18.70
2022-09-20T12:46:51.966Z,18.70
2022-09-20T12:49:40.613Z,18.40
2022-09-20T12:52:01.106Z,17.50
2022-09-20T12:54:11.578Z,17.00
2022-09-20T12:56:21.719Z,16.40
2022-09-20T12:58:33.381Z,15.90
2022-09-20T13:01:01.025Z,15.70
2022-09-20T13:03:23.746Z,15.50
2022-09-20T13:05:38.178Z,15.20
2022-09-20T13:07:46.962Z,14.90
2022-09-20T13:09:50.413Z,14.50
2022-09-20T13:11:59.088Z,14.10
2022-09-20T13:14:16.375Z,13.70
2022-09-20T13:16:24.012Z,13.50
2022-09-20T13:18:27.679Z,13.30
2022-09-20T13:20:34.722Z,13.20
2022-09-20T13:22:44.517Z,13.10
2022-09-20T13:24:55.717Z,13.20
2022-09-20T13:27:06.566Z,13.40
2022-09-20T13:29:19.496Z,13.60
2022-09-20T13:31:21.123Z,14.00
2022-09-20T13:33:24.980Z,14.50
2022-09-20T13:35:31.596Z,14.80
2022-09-20T13:37:34.608Z,15.20
2022-09-20T13:39:37.262Z,15.50
2022-09-20T13:41:39.298Z,15.80
2022-09-20T13:43:44.420Z,16.40
2022-09-20T13:45:47.541Z,17.20
2022-09-20T13:47:51.825Z,18.30
2022-09-20T13:49:59.041Z,19.20
2022-09-20T13:52:20.188Z,20.00
2022-09-20T13:54:32.070Z,20.60
2022-09-20T13:56:33.767Z,21.10
2022-09-20T13:58:37.188Z,21.50
2022-09-20T14:00:47.454Z,21.80
2022-09-20T14:02:50.372Z,21.20
2022-09-20T14:04:55.142Z,20.50
2022-09-20T14:06:59.661Z,20.20
2022-09-20T14:09:10.454Z,20.40
2022-09-20T14:11:19.470Z,20.90
2022-09-20T14:13:21.501Z,21.30
2022-09-20T14:15:23.858Z,21.80
2022-09-20T14:17:27.023Z,21.80
2022-09-20T14:19:34.797Z,21.60
2022-09-20T14:21:37.515Z,21.00
2022-09-20T14:23:54.548Z,20.10
2022-09-20T14:26:22.252Z,18.90
2022-09-20T14:28:28.882Z,17.70
2022-09-20T14:30:35.100Z,16.70
2022-09-20T14:32:50.608Z,16.10
2022-09-20T14:35:18.075Z,15.30
2022-09-20T14:37:33.097Z,14.80
2022-09-20T14:39:44.987Z,14.40
2022-09-20T14:41:47.085Z,14.10
2022-09-20T14:43:57.898Z,13.90
2022-09-20T14:46:15.326Z,13.80
2022-09-20T14:48:17.151Z,13.60
2022-09-20T14:50:29.578Z,13.60
2022-09-20T14:52:37.169Z,13.40
2022-09-20T14:54:39.576Z,13.20
2022-09-20T14:56:49.193Z,13.10
2022-09-20T14:59:09.399Z,13.00
2022-09-20T15:01:24.021Z,13.00
2022-09-20T15:03:32.359Z,13.00
2022-09-20T15:05:34.225Z,12.90
2022-09-20T15:07:37.285Z,12.90
2022-09-20T15:09:38.969Z,12.70
2022-09-20T15:11:42.729Z,12.70
2022-09-20T15:13:45.884Z,12.50
2022-09-20T15:15:53.245Z,12.40
2022-09-20T15:17:54.884Z,12.30
2022-09-20T15:19:57.366Z,12.20
2022-09-20T15:22:00.468Z,12.20
2022-09-20T15:24:02.276Z,12.10
2022-09-20T15:26:04.290Z,12.20
2022-09-20T15:28:07.780Z,12.20
2022-09-20T15:30:15.031Z,12.20
2022-09-20T15:32:16.622Z,12.20
2022-09-20T15:34:19.899Z,12.10
2022-09-20T15:36:21.619Z,12.20
2022-09-20T15:38:26.705Z,12.20
2022-09-20T15:40:28.938Z,12.20
2022-09-20T15:42:30.725Z,12.40
2022-09-20T15:44:32.674Z,12.80
2022-09-20T15:46:35.232Z,13.30
2022-09-20T15:48:37.943Z,13.60
2022-09-20T15:50:40.782Z,14.00
2022-09-20T15:52:43.381Z,14.20
2022-09-20T15:54:46.141Z,14.20
2022-09-20T15:56:47.823Z,14.20
2022-09-20T15:58:51.643Z,14.50
2022-09-20T16:00:53.661Z,14.60
2022-09-20T16:02:55.621Z,14.80
2022-09-20T16:04:59.302Z,14.80
2022-09-20T16:07:00.982Z,14.80
2022-09-20T16:09:03.467Z,14.70
2022-09-20T16:11:06.651Z,14.40
2022-09-20T16:13:08.268Z,14.00
2022-09-20T16:15:10.553Z,13.70
2022-09-20T16:17:13.277Z,13.20
2022-09-20T16:19:18.012Z,12.90
2022-09-20T16:21:20.055Z,12.70
2022-09-20T16:23:25.933Z,12.50
2022-09-20T16:25:27.910Z,12.20
2022-09-20T16:27:31.186Z,12.00
2022-09-20T16:29:33.449Z,11.90
2022-09-20T16:31:41.047Z,11.60
2022-09-20T16:33:42.841Z,11.40
2022-09-20T16:35:44.505Z,11.30
2022-09-20T16:37:46.164Z,11.10
2022-09-20T16:39:47.968Z,11.00
2022-09-20T16:41:50.602Z,10.90
2022-09-20T16:43:53.113Z,10.80
2022-09-20T16:46:01.081Z,10.60
2022-09-20T16:48:08.418Z,10.50
2022-09-20T16:50:10.601Z,10.30
2022-09-20T16:52:12.360Z,10.10
2022-09-20T16:54:16.265Z,10.00
2022-09-20T16:56:21.497Z,9.80
2022-09-20T16:58:29.612Z,9.70
2022-09-20T17:00:33.664Z,9.60
2022-09-20T17:02:36.100Z,9.50
2022-09-20T17:04:38.302Z,9.40
2022-09-20T17:06:41.193Z,9.30
2022-09-20T17:08:44.921Z,9.30
2022-09-20T17:10:47.574Z,9.20
2022-09-20T17:12:54.721Z,9.20
2022-09-20T17:14:57.880Z,9.20
2022-09-20T17:16:59.572Z,9.20
2022-09-20T17:19:12.898Z,9.20
2022-09-20T17:21:16.736Z,9.30
2022-09-20T17:23:18.457Z,9.30
2022-09-20T17:25:20.212Z,9.30
2022-09-20T17:27:22.069Z,9.30
2022-09-20T17:29:24.146Z,9.30
2022-09-20T17:31:30.208Z,9.30
2022-09-20T17:33:34.561Z,9.20
2022-09-20T17:35:36.154Z,9.20
2022-09-20T17:37:38.868Z,9.20
2022-09-20T17:39:41.788Z,9.10
2022-09-20T17:41:45.812Z,9.10
2022-09-20T17:43:48.121Z,9.10
2022-09-20T17:45:50.472Z,9.00
2022-09-20T17:47:57.081Z,9.00
2022-09-20T17:49:59.198Z,9.00
2022-09-20T17:52:01.032Z,8.90
2022-09-20T17:54:02.849Z,8.90
2022-09-20T17:56:05.005Z,8.90
2022-09-20T17:58:08.253Z,8.90
2022-09-20T18:00:10.801Z,8.80
2022-09-20T18:02:13.163Z,8.80
2022-09-20T18:04:16.562Z,8.70
2022-09-20T18:06:26.039Z,8.60
2022-09-20T18:08:27.681Z,8.60
2022-09-20T18:10:29.769Z,8.40
2022-09-20T18:12:32.528Z,8.30
2022-09-20T18:14:36.964Z,8.20
2022-09-20T18:16:39.313Z,8.20
2022-09-20T18:18:43.547Z,8.10
2022-09-20T18:20:45.216Z,8.00
2022-09-20T18:22:50.447Z,7.90
2022-09-20T18:24:52.515Z,7.90
2022-09-20T18:26:54.927Z,7.90
2022-09-20T18:29:07.960Z,7.90
2022-09-20T18:31:10.519Z,7.90
2022-09-20T18:33:16.170Z,7.80
2022-09-20T18:35:17.815Z,7.70
2022-09-20T18:37:19.438Z,7.70
2022-09-20T18:39:23.028Z,7.70
2022-09-20T18:41:27.945Z,7.70
2022-09-20T18:43:32.724Z,7.70
2022-09-20T18:45:36.012Z,7.60
2022-09-20T18:47:37.664Z,7.60
2022-09-20T18:49:40.394Z,7.60
2022-09-20T18:51:44.026Z,7.60
2022-09-20T18:53:46.138Z,7.50
2022-09-20T18:55:49.626Z,7.50
2022-09-20T18:57:51.782Z,7.50
2022-09-20T18:59:55.203Z,7.50
2022-09-20T19:02:17.374Z,7.40
2022-09-20T19:04:31.210Z,7.40
2022-09-20T19:06:44.151Z,7.30
2022-09-20T19:09:00.211Z,7.30
2022-09-20T19:11:07.832Z,7.30
2022-09-20T19:13:38.323Z,7.20
2022-09-20T19:16:04.435Z,7.20
2022-09-20T19:18:27.065Z,7.10
2022-09-20T19:20:54.432Z,7.10
2022-09-20T19:23:42.214Z,7.10
2022-09-20T19:25:48.578Z,7.10
2022-09-20T19:27:51.405Z,7.00
2022-09-20T19:29:53.748Z,7.00
2022-09-20T19:31:58.966Z,7.00
2022-09-20T19:34:10.281Z,7.00
2022-09-20T19:36:12.836Z,6.90
2022-09-20T19:38:20.154Z,7.00
2022-09-20T19:40:35.015Z,6.90
2022-09-20T19:42:52.915Z,6.90
2022-09-20T19:45:11.429Z,6.90
2022-09-20T19:47:31.998Z,6.90
2022-09-20T19:49:51.645Z,6.80
2022-09-20T19:51:57.845Z,6.80
2022-09-20T19:53:59.786Z,6.90
2022-09-20T19:56:08.197Z,6.90
2022-09-20T19:58:10.682Z,6.90
2022-09-20T20:00:14.497Z,7.00
2022-09-20T20:02:16.497Z,7.00
2022-09-20T20:04:19.900Z,7.00
2022-09-20T20:06:36.510Z,7.00
2022-09-20T20:08:48.700Z,7.00
2022-09-20T20:11:06.633Z,6.90
2022-09-20T20:13:52.111Z,6.90
2022-09-20T20:15:59.937Z,6.90
2022-09-20T20:18:22.954Z,6.80
2022-09-20T20:20:38.495Z,6.80
2022-09-20T20:23:02.783Z,6.80
2022-09-20T20:25:04.913Z,6.70
2022-09-20T20:27:06.620Z,6.70
2022-09-20T20:29:10.356Z,6.60
2022-09-20T20:31:12.527Z,6.60
2022-09-20T20:33:16.411Z,6.60
2022-09-20T20:35:20.610Z,6.60
2022-09-20T20:37:24.245Z,6.60
2022-09-20T20:39:31.573Z,6.70
2022-09-20T20:41:33.212Z,6.70
2022-09-20T20:43:38.558Z,6.70
2022-09-20T20:45:48.718Z,6.60
2022-09-20T20:47:56.749Z,6.60
2022-09-20T20:49:58.373Z,6.60
2022-09-20T20:52:04.534Z,6.60
2022-09-20T20:54:06.314Z,6.60
2022-09-20T20:56:12.140Z,6.50
2022-09-20T20:58:13.828Z,6.50
2022-09-20T21:00:15.875Z,6.50
2022-09-20T21:02:17.576Z,6.50
2022-09-20T21:04:19.953Z,6.50
2022-09-20T21:06:25.106Z,6.40
2022-09-20T21:08:34.727Z,6.40
2022-09-20T21:10:36.349Z,6.40
2022-09-20T21:12:38.090Z,6.40
2022-09-20T21:14:40.085Z,6.30
2022-09-20T21:16:43.471Z,6.30
2022-09-20T21:18:47.464Z,6.30
2022-09-20T21:20:49.056Z,6.30
2022-09-20T21:22:50.736Z,6.30
2022-09-20T21:24:53.016Z,6.30
2022-09-20T21:26:55.554Z,6.30
2022-09-20T21:28:59.753Z,6.30
2022-09-20T21:31:04.874Z,6.40
2022-09-20T21:33:07.066Z,6.30
2022-09-20T21:35:09.107Z,6.30
2022-09-20T21:37:10.844Z,6.30
2022-09-20T21:39:12.838Z,6.30
2022-09-20T21:41:17.707Z,6.30
2022-09-20T21:43:19.344Z,6.30
2022-09-20T21:45:24.766Z,6.30
2022-09-20T21:47:26.403Z,6.30
2022-09-20T21:49:28.045Z,6.30
2022-09-20T21:51:31.373Z,6.20
2022-09-20T21:53:33.869Z,6.30
2022-09-20T21:55:35.510Z,6.30
2022-09-20T21:57:37.972Z,6.20
2022-09-20T21:59:39.616Z,6.20
2022-09-20T22:01:41.507Z,6.20
2022-09-20T22:03:48.965Z,6.20
2022-09-20T22:05:50.611Z,6.10
2022-09-20T22:07:54.106Z,6.10
2022-09-20T22:09:55.786Z,6.10
2022-09-20T22:11:57.571Z,6.10
2022-09-20T22:13:59.961Z,6.00
2022-09-20T22:16:14.134Z,6.00
2022-09-20T22:18:22.840Z,6.10
2022-09-20T22:20:24.841Z,6.20
2022-09-20T22:22:27.592Z,6.20
2022-09-20T22:24:32.394Z,6.20
2022-09-20T22:26:40.021Z,6.20
2022-09-20T22:28:43.946Z,6.20
2022-09-20T22:30:45.667Z,6.30
2022-09-20T22:32:47.292Z,6.30
2022-09-20T22:34:48.938Z,6.30
2022-09-20T22:36:54.175Z,6.20
2022-09-20T22:38:56.208Z,6.10
2022-09-20T22:40:58.856Z,6.10
2022-09-20T22:43:00.483Z,6.00
2022-09-20T22:45:02.169Z,6.00
2022-09-20T22:47:04.014Z,6.00
2022-09-20T22:49:06.773Z,6.10
2022-09-20T22:51:17.228Z,6.10
2022-09-20T22:53:18.821Z,6.20
2022-09-20T22:55:20.665Z,6.20
2022-09-20T22:57:22.294Z,6.30
2022-09-20T22:59:23.908Z,6.30
2022-09-20T23:01:28.081Z,6.30
2022-09-20T23:03:29.782Z,6.30
2022-09-20T23:05:31.505Z,6.30
2022-09-20T23:07:33.406Z,6.20
2022-09-20T23:09:35.069Z,6.20
2022-09-20T23:11:37.593Z,6.20
2022-09-20T23:13:41.160Z,6.30
2022-09-20T23:15:42.794Z,6.30
2022-09-20T23:17:44.645Z,6.30
2022-09-20T23:19:46.361Z,6.30
2022-09-20T23:21:48.243Z,6.30
2022-09-20T23:23:54.730Z,6.40
2022-09-20T23:26:03.928Z,6.40
2022-09-20T23:28:05.581Z,6.40
2022-09-20T23:30:07.733Z,6.40
2022-09-20T23:32:09.382Z,6.30
2022-09-20T23:34:11.370Z,6.40
2022-09-20T23:36:13.479Z,6.40
2022-09-20T23:38:15.249Z,6.30
2022-09-20T23:40:17.191Z,6.30
2022-09-20T23:42:18.932Z,6.30
2022-09-20T23:44:20.548Z,6.40
2022-09-20T23:46:24.357Z,6.40
2022-09-20T23:48:26.031Z,6.40
2022-09-20T23:50:27.774Z,6.40
2022-09-20T23:52:30.249Z,6.30
2022-09-20T23:54:31.970Z,6.40
2022-09-20T23:56:33.673Z,6.30
2022-09-20T23:58:40.034Z,6.30
